Nearby METAR Reports

Actuele Vliegveldwaarnemingen NL (METAR).Zie KNMI uitleg METAR hier

EHAM - Amsterdam/Schiph, Netherlands
Distance from station: ONO 18km
Updated: 21/04/2018 19:25
Helder
Helder
 Wind van NO
Wind: NO 15 km/h
Temperatuur: 18°C
Dauwpunt: 10°C
Vochtigheid: 60%
Barometer: 1019 hPa
Overzicht: Helder
Visibility: greater than 10 km
2018/04/21 17:25 EHAM 211725Z 05008KT CAVOK 18/10 Q1019 NOSIG
EHKD - DE KOOY/DE KOOY
Updated: 21/04/2018 19:25
Zwaar bewolkt
Zwaar bewolkt
 Wind van NO
Wind: NO 20 km/h
Temperatuur: 15°C
Dauwpunt: 9°C
Vochtigheid: 68%
Barometer: 1020 hPa
Clouds: Zwaar bewolkt
Visibility: 10 km
Cloud details: Zwaar bewolkt 9144 m
2018/04/21 17:25 EHKD 211725Z AUTO 04011KT 010V070 9999 OVC300 15/09 Q1020 BLU 05009KT CAVOK
 
EHLW - LEEUWARDEN/LEEUWARDEN
Updated: 21/04/2018 19:25
Zwaar bewolkt
Zwaar bewolkt
 Wind van NO
Wind: NO 17 km/h
Temperatuur: 14°C
Dauwpunt: 8°C
Vochtigheid: 67%
Barometer: 1020 hPa
Clouds: Zwaar bewolkt
Visibility: 10 km
Cloud details: Zwaar bewolkt 9449 m
2018/04/21 17:25 EHLW 211725Z AUTO 04009KT 010V090 9999 OVC310 14/08 Q1020 BLU
EHVK - VOLKEL/VOLKEL
Updated: 21/04/2018 19:25
Zwaar bewolkt
Zwaar bewolkt
 Wind van NO
Wind: NO 11 km/h
Temperatuur: 21°C
Dauwpunt: 9°C
Vochtigheid: 46%
Barometer: 1018 hPa
Clouds: Zwaar bewolkt
Visibility: 10 km
Cloud details: Zwaar bewolkt 10058 m
2018/04/21 17:25 EHVK 211725Z AUTO 05006KT 9999 OVC330 21/09 Q1018 BLU
 
EHFS - VLISSINGEN
Updated: 21/04/2018 18:55
Gedeeltelijk bewolkt
Gedeeltelijk bewolkt
 Wind van O
Wind: O 7 km/h
Temperatuur: 19°C
Dauwpunt: 10°C
Vochtigheid: 56%
Barometer: 1018 hPa
Clouds: Gedeeltelijk bewolkt
Visibility: 10 km
2018/04/21 16:55 EHFS 211655Z AUTO 08004KT 020V130 9999 NSC 19/10 Q1018 W///H///
EHEH - EINDHOVEN/EINDHOVEN
Updated: 21/04/2018 19:25
Zwaar bewolkt
Zwaar bewolkt
 Wind van NO
Wind: NO 15 km/h
Temperatuur: 22°C
Dauwpunt: 8°C
Vochtigheid: 41%
Barometer: 1018 hPa
Clouds: Zwaar bewolkt
Visibility: 10 km
Cloud details: Zwaar bewolkt 10668 m
2018/04/21 17:25 EHEH 211725Z AUTO 05008KT 020V080 9999 OVC350 22/08 Q1018 BLU 06007KT CAVOK
 
EHGR - GILZE-RIJEN/GILZE-RIJEN
Updated: 21/04/2018 19:25
Few Clouds
Few Clouds
 Wind van NO
Wind: NO 11 km/h
Temperatuur: 22°C
Dauwpunt: 9°C
Vochtigheid: 44%
Barometer: 1018 hPa
Clouds: Few Clouds
Visibility: 10 km
Cloud details: Few Clouds 10973 m
2018/04/21 17:25 EHGR 211725Z AUTO 05006KT 020V100 9999 FEW360 22/09 Q1018 BLU
EHDL - ARNHEM/DEELEN
Updated: 21/04/2018 19:25
Zwaar bewolkt
Zwaar bewolkt
 Wind van NO
Wind: NO 11 km/h
Temperatuur: 20°C
Dauwpunt: 8°C
Vochtigheid: 46%
Barometer: 1019 hPa
Clouds: Zwaar bewolkt
Visibility: 10 km
Cloud details: Zwaar bewolkt 10058 m
2018/04/21 17:25 EHDL 211725Z AUTO 04006KT 360V130 9999 OVC330 20/08 Q1019 BLU
 
EHBK - MAASTRICHT/MAASTRICHT-AACHEN
Updated: 21/04/2018 19:25
Helder
Helder
 Wind van NO
Wind: NO 15 km/h
Temperatuur: 21°C
Dauwpunt: 11°C
Vochtigheid: 53%
Barometer: 1018 hPa
Clouds: Helder
Visibility: 6 km
2018/04/21 17:25 EHBK 211725Z AUTO 05008KT 6000 NCD 21/11 Q1018 NOSIG